sensor_id;sensor_type;location;lat;lon;timestamp;temperature;humidity
8664;DHT22;4369;47.842;13.096;2024-01-10T00:01:45;-4.10;99.90
8664;DHT22;4369;47.842;13.096;2024-01-10T00:04:12;-4.10;99.90
8664;DHT22;4369;47.842;13.096;2024-01-10T00:06:42;-4.20;99.90
8664;DHT22;4369;47.842;13.096;2024-01-10T00:09:09;-4.10;99.90
8664;DHT22;4369;47.842;13.096;2024-01-10T00:11:36;-4.10;99.90
8664;DHT22;4369;47.842;13.096;2024-01-10T00:14:03;-4.20;99.90
8664;DHT22;4369;47.842;13.096;2024-01-10T00:16:32;-4.10;1.00
8664;DHT22;4369;47.842;13.096;2024-01-10T00:18:59;-4.00;1.00
8664;DHT22;4369;47.842;13.096;2024-01-10T00:21:26;-4.00;99.90
8664;DHT22;4369;47.842;13.096;2024-01-10T00:23:53;-3.90;99.90
8664;DHT22;4369;47.842;13.096;2024-01-10T00:26:20;-3.90;99.90
8664;DHT22;4369;47.842;13.096;2024-01-10T00:28:47;-4.00;99.90
8664;DHT22;4369;47.842;13.096;2024-01-10T00:31:14;-3.90;99.90
8664;DHT22;4369;47.842;13.096;2024-01-10T00:33:43;-3.90;99.90
8664;DHT22;4369;47.842;13.096;2024-01-10T00:36:10;-4.00;99.90
8664;DHT22;4369;47.842;13.096;2024-01-10T00:38:37;-3.90;99.90
8664;DHT22;4369;47.842;13.096;2024-01-10T00:41:04;-3.90;99.90
8664;DHT22;4369;47.842;13.096;2024-01-10T00:43:31;-3.90;99.90
8664;DHT22;4369;47.842;13.096;2024-01-10T00:45:58;-3.90;99.90
8664;DHT22;4369;47.842;13.096;2024-01-10T00:48:25;-3.80;99.90
8664;DHT22;4369;47.842;13.096;2024-01-10T00:50:53;-3.70;99.90
8664;DHT22;4369;47.842;13.096;2024-01-10T00:53:20;-4.00;1.00
8664;DHT22;4369;47.842;13.096;2024-01-10T00:55:47;-3.90;1.00
8664;DHT22;4369;47.842;13.096;2024-01-10T00:58:16;-4.10;1.00
8664;DHT22;4369;47.842;13.096;2024-01-10T01:00:42;-4.20;99.90
8664;DHT22;4369;47.842;13.096;2024-01-10T01:03:09;-4.30;99.90
8664;DHT22;4369;47.842;13.096;2024-01-10T01:05:36;-4.40;1.00
8664;DHT22;4369;47.842;13.096;2024-01-10T01:08:05;-4.40;1.00
8664;DHT22;4369;47.842;13.096;2024-01-10T01:10:34;-4.40;99.90
8664;DHT22;4369;47.842;13.096;2024-01-10T01:13:00;-4.50;99.90
8664;DHT22;4369;47.842;13.096;2024-01-10T01:15:28;-4.50;99.90
8664;DHT22;4369;47.842;13.096;2024-01-10T01:17:55;-4.40;1.00
8664;DHT22;4369;47.842;13.096;2024-01-10T01:20:22;-4.30;1.00
8664;DHT22;4369;47.842;13.096;2024-01-10T01:22:49;-4.40;1.00
8664;DHT22;4369;47.842;13.096;2024-01-10T01:25:17;-4.40;1.00
8664;DHT22;4369;47.842;13.096;2024-01-10T01:27:44;-4.20;1.00
8664;DHT22;4369;47.842;13.096;2024-01-10T01:30:11;-4.20;1.00
8664;DHT22;4369;47.842;13.096;2024-01-10T01:32:38;-4.30;1.00
8664;DHT22;4369;47.842;13.096;2024-01-10T01:35:06;-4.30;1.00
8664;DHT22;4369;47.842;13.096;2024-01-10T01:37:33;-4.30;1.00
8664;DHT22;4369;47.842;13.096;2024-01-10T01:40:00;-4.40;1.00
8664;DHT22;4369;47.842;13.096;2024-01-10T01:42:28;-4.40;1.00
8664;DHT22;4369;47.842;13.096;2024-01-10T01:44:55;-4.50;1.00
8664;DHT22;4369;47.842;13.096;2024-01-10T01:47:22;-4.50;1.00
8664;DHT22;4369;47.842;13.096;2024-01-10T01:49:49;-4.50;1.00
8664;DHT22;4369;47.842;13.096;2024-01-10T01:52:16;-4.50;1.70
8664;DHT22;4369;47.842;13.096;2024-01-10T01:54:43;-4.50;12.30
8664;DHT22;4369;47.842;13.096;2024-01-10T01:57:10;-4.50;20.00
8664;DHT22;4369;47.842;13.096;2024-01-10T01:59:39;-4.60;21.80
8664;DHT22;4369;47.842;13.096;2024-01-10T02:02:07;-4.60;26.30
8664;DHT22;4369;47.842;13.096;2024-01-10T02:04:34;-4.40;32.70
8664;DHT22;4369;47.842;13.096;2024-01-10T02:07:03;-4.30;33.00
8664;DHT22;4369;47.842;13.096;2024-01-10T02:09:30;-4.30;33.00
8664;DHT22;4369;47.842;13.096;2024-01-10T02:11:57;-4.20;31.30
8664;DHT22;4369;47.842;13.096;2024-01-10T02:14:24;-4.20;28.30
8664;DHT22;4369;47.842;13.096;2024-01-10T02:16:52;-4.20;25.40
8664;DHT22;4369;47.842;13.096;2024-01-10T02:19:21;-4.30;22.90
8664;DHT22;4369;47.842;13.096;2024-01-10T02:21:48;-4.40;18.10
8664;DHT22;4369;47.842;13.096;2024-01-10T02:24:15;-4.50;21.20
8664;DHT22;4369;47.842;13.096;2024-01-10T02:26:43;-4.40;28.40
8664;DHT22;4369;47.842;13.096;2024-01-10T02:29:10;-4.30;29.60
8664;DHT22;4369;47.842;13.096;2024-01-10T02:31:37;-4.30;26.90
8664;DHT22;4369;47.842;13.096;2024-01-10T02:34:04;-4.40;24.00
8664;DHT22;4369;47.842;13.096;2024-01-10T02:36:31;-4.40;24.40
8664;DHT22;4369;47.842;13.096;2024-01-10T02:38:58;-4.30;26.70
8664;DHT22;4369;47.842;13.096;2024-01-10T02:41:25;-4.30;21.90
8664;DHT22;4369;47.842;13.096;2024-01-10T02:43:54;-4.40;23.00
8664;DHT22;4369;47.842;13.096;2024-01-10T02:46:24;-4.30;27.90
8664;DHT22;4369;47.842;13.096;2024-01-10T02:48:53;-4.20;27.40
8664;DHT22;4369;47.842;13.096;2024-01-10T02:51:21;-4.20;25.80
8664;DHT22;4369;47.842;13.096;2024-01-10T02:53:48;-4.20;25.60
8664;DHT22;4369;47.842;13.096;2024-01-10T02:56:15;-4.10;24.80
8664;DHT22;4369;47.842;13.096;2024-01-10T02:58:42;-4.20;19.90
8664;DHT22;4369;47.842;13.096;2024-01-10T03:01:11;-4.20;20.70
8664;DHT22;4369;47.842;13.096;2024-01-10T03:03:40;-4.20;21.10
8664;DHT22;4369;47.842;13.096;2024-01-10T03:06:07;-4.10;22.10
8664;DHT22;4369;47.842;13.096;2024-01-10T03:08:34;-4.00;22.50
8664;DHT22;4369;47.842;13.096;2024-01-10T03:11:01;-4.30;13.50
8664;DHT22;4369;47.842;13.096;2024-01-10T03:13:28;-4.30;20.90
8664;DHT22;4369;47.842;13.096;2024-01-10T03:15:55;-4.40;24.10
8664;DHT22;4369;47.842;13.096;2024-01-10T03:18:23;-4.50;31.20
8664;DHT22;4369;47.842;13.096;2024-01-10T03:20:50;-4.40;34.40
8664;DHT22;4369;47.842;13.096;2024-01-10T03:23:17;-4.40;39.80
8664;DHT22;4369;47.842;13.096;2024-01-10T03:25:44;-4.30;40.80
8664;DHT22;4369;47.842;13.096;2024-01-10T03:28:15;-4.40;38.50
8664;DHT22;4369;47.842;13.096;2024-01-10T03:30:43;-4.20;43.60
8664;DHT22;4369;47.842;13.096;2024-01-10T03:33:10;-4.10;39.40
8664;DHT22;4369;47.842;13.096;2024-01-10T03:35:38;-4.00;33.70
8664;DHT22;4369;47.842;13.096;2024-01-10T03:38:05;-4.00;28.50
8664;DHT22;4369;47.842;13.096;2024-01-10T03:40:32;-4.20;24.20
8664;DHT22;4369;47.842;13.096;2024-01-10T03:42:59;-4.30;26.00
8664;DHT22;4369;47.842;13.096;2024-01-10T03:45:26;-4.30;29.60
8664;DHT22;4369;47.842;13.096;2024-01-10T03:47:55;-4.20;36.60
8664;DHT22;4369;47.842;13.096;2024-01-10T03:50:22;-4.10;36.70
8664;DHT22;4369;47.842;13.096;2024-01-10T03:52:50;-4.20;31.40
8664;DHT22;4369;47.842;13.096;2024-01-10T03:55:17;-4.20;27.70
8664;DHT22;4369;47.842;13.096;2024-01-10T03:57:44;-4.30;23.00
8664;DHT22;4369;47.842;13.096;2024-01-10T04:00:12;-4.30;23.40
8664;DHT22;4369;47.842;13.096;2024-01-10T04:02:39;-4.30;25.60
8664;DHT22;4369;47.842;13.096;2024-01-10T04:05:07;-4.20;25.70
8664;DHT22;4369;47.842;13.096;2024-01-10T04:07:36;-4.20;26.00
8664;DHT22;4369;47.842;13.096;2024-01-10T04:10:05;-4.20;28.30
8664;DHT22;4369;47.842;13.096;2024-01-10T04:12:36;-4.10;29.20
8664;DHT22;4369;47.842;13.096;2024-01-10T04:15:03;-4.10;29.50
8664;DHT22;4369;47.842;13.096;2024-01-10T04:17:30;-4.10;34.60
8664;DHT22;4369;47.842;13.096;2024-01-10T04:19:57;-4.10;34.60
8664;DHT22;4369;47.842;13.096;2024-01-10T04:22:25;-4.00;38.10
8664;DHT22;4369;47.842;13.096;2024-01-10T04:24:52;-3.90;35.20
8664;DHT22;4369;47.842;13.096;2024-01-10T04:27:20;-3.90;31.30
8664;DHT22;4369;47.842;13.096;2024-01-10T04:29:47;-3.90;30.20
8664;DHT22;4369;47.842;13.096;2024-01-10T04:32:14;-4.00;32.40
8664;DHT22;4369;47.842;13.096;2024-01-10T04:34:41;-4.10;32.50
8664;DHT22;4369;47.842;13.096;2024-01-10T04:37:08;-3.90;40.50
8664;DHT22;4369;47.842;13.096;2024-01-10T04:39:35;-3.90;42.20
8664;DHT22;4369;47.842;13.096;2024-01-10T04:42:03;-3.80;41.40
8664;DHT22;4369;47.842;13.096;2024-01-10T04:44:32;-3.70;39.80
8664;DHT22;4369;47.842;13.096;2024-01-10T04:46:59;-3.70;38.50
8664;DHT22;4369;47.842;13.096;2024-01-10T04:49:26;-4.00;28.80
8664;DHT22;4369;47.842;13.096;2024-01-10T04:51:53;-4.00;43.30
8664;DHT22;4369;47.842;13.096;2024-01-10T04:54:20;-4.00;52.90
8664;DHT22;4369;47.842;13.096;2024-01-10T04:56:47;-3.90;55.50
8664;DHT22;4369;47.842;13.096;2024-01-10T04:59:14;-4.00;55.90
8664;DHT22;4369;47.842;13.096;2024-01-10T05:01:42;-4.00;59.40
8664;DHT22;4369;47.842;13.096;2024-01-10T05:04:09;-4.10;64.10
8664;DHT22;4369;47.842;13.096;2024-01-10T05:06:36;-4.10;65.00
8664;DHT22;4369;47.842;13.096;2024-01-10T05:09:03;-4.10;68.50
8664;DHT22;4369;47.842;13.096;2024-01-10T05:11:30;-4.30;71.00
8664;DHT22;4369;47.842;13.096;2024-01-10T05:13:57;-4.20;82.40
8664;DHT22;4369;47.842;13.096;2024-01-10T05:16:24;-4.30;87.30
8664;DHT22;4369;47.842;13.096;2024-01-10T05:18:52;-4.40;87.60
8664;DHT22;4369;47.842;13.096;2024-01-10T05:21:19;-4.30;92.70
8664;DHT22;4369;47.842;13.096;2024-01-10T05:23:47;-4.20;96.70
8664;DHT22;4369;47.842;13.096;2024-01-10T05:26:14;-4.10;98.10
8664;DHT22;4369;47.842;13.096;2024-01-10T05:28:41;-4.10;98.30
8664;DHT22;4369;47.842;13.096;2024-01-10T05:31:08;-4.10;98.30
8664;DHT22;4369;47.842;13.096;2024-01-10T05:33:35;-4.10;97.00
8664;DHT22;4369;47.842;13.096;2024-01-10T05:36:04;-4.10;95.40
8664;DHT22;4369;47.842;13.096;2024-01-10T05:38:31;-4.20;95.20
8664;DHT22;4369;47.842;13.096;2024-01-10T05:40:58;-4.30;96.60
8664;DHT22;4369;47.842;13.096;2024-01-10T05:43:25;-4.40;99.80
8664;DHT22;4369;47.842;13.096;2024-01-10T05:45:52;-4.40;99.90
8664;DHT22;4369;47.842;13.096;2024-01-10T05:48:19;-4.40;99.90
8664;DHT22;4369;47.842;13.096;2024-01-10T05:50:46;-4.20;99.90
8664;DHT22;4369;47.842;13.096;2024-01-10T05:53:14;-4.20;99.90
8664;DHT22;4369;47.842;13.096;2024-01-10T05:55:42;-4.10;99.90
8664;DHT22;4369;47.842;13.096;2024-01-10T05:58:09;-3.90;99.90
8664;DHT22;4369;47.842;13.096;2024-01-10T06:00:36;-3.80;99.90
8664;DHT22;4369;47.842;13.096;2024-01-10T06:03:04;-3.80;99.90
8664;DHT22;4369;47.842;13.096;2024-01-10T06:05:31;-3.80;99.90
8664;DHT22;4369;47.842;13.096;2024-01-10T06:07:58;-3.70;99.90
8664;DHT22;4369;47.842;13.096;2024-01-10T06:10:26;-3.70;99.30
8664;DHT22;4369;47.842;13.096;2024-01-10T06:12:54;-3.80;94.50
8664;DHT22;4369;47.842;13.096;2024-01-10T06:15:22;-3.80;91.00
8664;DHT22;4369;47.842;13.096;2024-01-10T06:17:48;-3.90;87.50
8664;DHT22;4369;47.842;13.096;2024-01-10T06:20:16;-3.80;90.10
8664;DHT22;4369;47.842;13.096;2024-01-10T06:22:43;-3.80;83.50
8664;DHT22;4369;47.842;13.096;2024-01-10T06:25:12;-3.80;80.30
8664;DHT22;4369;47.842;13.096;2024-01-10T06:27:40;-3.70;78.50
8664;DHT22;4369;47.842;13.096;2024-01-10T06:30:08;-3.80;73.80
8664;DHT22;4369;47.842;13.096;2024-01-10T06:32:35;-3.80;71.00
8664;DHT22;4369;47.842;13.096;2024-01-10T06:35:02;-3.80;69.20
8664;DHT22;4369;47.842;13.096;2024-01-10T06:37:30;-3.80;71.90
8664;DHT22;4369;47.842;13.096;2024-01-10T06:39:57;-3.80;67.00
8664;DHT22;4369;47.842;13.096;2024-01-10T06:42:24;-3.90;58.90
8664;DHT22;4369;47.842;13.096;2024-01-10T06:44:53;-4.00;57.30
8664;DHT22;4369;47.842;13.096;2024-01-10T06:47:20;-4.10;56.90
8664;DHT22;4369;47.842;13.096;2024-01-10T06:49:48;-4.10;59.50
8664;DHT22;4369;47.842;13.096;2024-01-10T06:52:15;-4.00;66.20
8664;DHT22;4369;47.842;13.096;2024-01-10T06:54:42;-4.00;66.40
8664;DHT22;4369;47.842;13.096;2024-01-10T06:57:09;-4.00;62.30
8664;DHT22;4369;47.842;13.096;2024-01-10T06:59:36;-4.00;58.40
8664;DHT22;4369;47.842;13.096;2024-01-10T07:02:05;-4.00;52.90
8664;DHT22;4369;47.842;13.096;2024-01-10T07:04:32;-4.10;49.00
8664;DHT22;4369;47.842;13.096;2024-01-10T07:06:59;-4.20;49.00
8664;DHT22;4369;47.842;13.096;2024-01-10T07:09:28;-4.00;53.10
8664;DHT22;4369;47.842;13.096;2024-01-10T07:11:55;-4.10;47.10
8664;DHT22;4369;47.842;13.096;2024-01-10T07:14:21;-4.20;43.40
8664;DHT22;4369;47.842;13.096;2024-01-10T07:16:48;-4.20;40.90
8664;DHT22;4369;47.842;13.096;2024-01-10T07:19:17;-4.20;40.90
8664;DHT22;4369;47.842;13.096;2024-01-10T07:21:44;-4.10;37.80
8664;DHT22;4369;47.842;13.096;2024-01-10T07:24:10;-4.20;30.20
8664;DHT22;4369;47.842;13.096;2024-01-10T07:26:38;-4.30;25.70
8664;DHT22;4369;47.842;13.096;2024-01-10T07:29:05;-4.30;26.20
8664;DHT22;4369;47.842;13.096;2024-01-10T07:31:34;-4.40;25.20
8664;DHT22;4369;47.842;13.096;2024-01-10T07:34:01;-4.40;26.80
8664;DHT22;4369;47.842;13.096;2024-01-10T07:36:31;-4.50;27.30
8664;DHT22;4369;47.842;13.096;2024-01-10T07:39:00;-4.60;32.60
8664;DHT22;4369;47.842;13.096;2024-01-10T07:41:27;-4.60;34.50
8664;DHT22;4369;47.842;13.096;2024-01-10T07:43:53;-4.50;38.20
8664;DHT22;4369;47.842;13.096;2024-01-10T07:46:20;-4.50;33.80
8664;DHT22;4369;47.842;13.096;2024-01-10T07:48:48;-4.60;33.50
8664;DHT22;4369;47.842;13.096;2024-01-10T07:51:15;-4.50;33.00
8664;DHT22;4369;47.842;13.096;2024-01-10T07:53:43;-4.60;27.10
8664;DHT22;4369;47.842;13.096;2024-01-10T07:56:10;-4.60;24.80
8664;DHT22;4369;47.842;13.096;2024-01-10T07:58:38;-4.60;23.30
8664;DHT22;4369;47.842;13.096;2024-01-10T08:01:05;-4.60;18.40
8664;DHT22;4369;47.842;13.096;2024-01-10T08:03:32;-4.60;18.90
8664;DHT22;4369;47.842;13.096;2024-01-10T08:06:00;-4.50;15.70
8664;DHT22;4369;47.842;13.096;2024-01-10T08:08:27;-4.50;12.40
8664;DHT22;4369;47.842;13.096;2024-01-10T08:10:56;-4.50;11.20
8664;DHT22;4369;47.842;13.096;2024-01-10T08:13:23;-4.50;2.90
8664;DHT22;4369;47.842;13.096;2024-01-10T08:15:50;-4.50;1.00
8664;DHT22;4369;47.842;13.096;2024-01-10T08:18:17;-4.50;1.00
8664;DHT22;4369;47.842;13.096;2024-01-10T08:20:44;-4.60;1.00
8664;DHT22;4369;47.842;13.096;2024-01-10T08:23:11;-4.60;1.00
8664;DHT22;4369;47.842;13.096;2024-01-10T08:25:39;-4.50;1.00
8664;DHT22;4369;47.842;13.096;2024-01-10T08:28:07;-4.50;1.00
8664;DHT22;4369;47.842;13.096;2024-01-10T08:30:35;-4.40;1.00
8664;DHT22;4369;47.842;13.096;2024-01-10T08:33:03;-4.50;1.00
8664;DHT22;4369;47.842;13.096;2024-01-10T08:35:31;-4.50;1.00
8664;DHT22;4369;47.842;13.096;2024-01-10T08:37:58;-4.60;1.00
8664;DHT22;4369;47.842;13.096;2024-01-10T08:40:25;-4.60;1.00
8664;DHT22;4369;47.842;13.096;2024-01-10T08:42:52;-4.40;1.00
8664;DHT22;4369;47.842;13.096;2024-01-10T08:45:21;-4.40;1.00
8664;DHT22;4369;47.842;13.096;2024-01-10T08:47:47;-4.30;1.00
8664;DHT22;4369;47.842;13.096;2024-01-10T08:50:14;-4.10;1.00
8664;DHT22;4369;47.842;13.096;2024-01-10T08:52:41;-4.00;1.00
8664;DHT22;4369;47.842;13.096;2024-01-10T08:55:08;-4.00;1.00
8664;DHT22;4369;47.842;13.096;2024-01-10T08:57:35;-3.90;1.00
8664;DHT22;4369;47.842;13.096;2024-01-10T09:00:03;-3.80;1.00
8664;DHT22;4369;47.842;13.096;2024-01-10T09:02:33;-3.80;1.00
8664;DHT22;4369;47.842;13.096;2024-01-10T09:05:02;-3.80;1.00
8664;DHT22;4369;47.842;13.096;2024-01-10T09:07:30;-3.70;1.00
8664;DHT22;4369;47.842;13.096;2024-01-10T09:09:57;-3.70;1.00
8664;DHT22;4369;47.842;13.096;2024-01-10T09:12:24;-3.60;1.00
8664;DHT22;4369;47.842;13.096;2024-01-10T09:14:51;-3.50;1.00
8664;DHT22;4369;47.842;13.096;2024-01-10T09:17:18;-3.80;1.00
8664;DHT22;4369;47.842;13.096;2024-01-10T09:19:46;-3.90;1.00
8664;DHT22;4369;47.842;13.096;2024-01-10T09:22:13;-4.00;1.00
8664;DHT22;4369;47.842;13.096;2024-01-10T09:24:40;-4.20;1.00
8664;DHT22;4369;47.842;13.096;2024-01-10T09:27:07;-4.30;1.00
8664;DHT22;4369;47.842;13.096;2024-01-10T09:29:34;-4.30;1.00
8664;DHT22;4369;47.842;13.096;2024-01-10T09:32:02;-4.20;1.00
8664;DHT22;4369;47.842;13.096;2024-01-10T09:34:29;-4.10;1.00
8664;DHT22;4369;47.842;13.096;2024-01-10T09:36:59;-3.80;1.00
8664;DHT22;4369;47.842;13.096;2024-01-10T09:39:27;-3.40;1.00
8664;DHT22;4369;47.842;13.096;2024-01-10T09:41:54;-3.20;1.00
8664;DHT22;4369;47.842;13.096;2024-01-10T09:44:21;-3.20;1.00
8664;DHT22;4369;47.842;13.096;2024-01-10T09:46:51;-2.90;1.00
8664;DHT22;4369;47.842;13.096;2024-01-10T09:49:19;-2.40;1.00
8664;DHT22;4369;47.842;13.096;2024-01-10T09:51:48;-2.00;1.00
8664;DHT22;4369;47.842;13.096;2024-01-10T09:54:18;-1.50;1.00
8664;DHT22;4369;47.842;13.096;2024-01-10T09:56:45;-1.10;1.00
8664;DHT22;4369;47.842;13.096;2024-01-10T09:59:13;-0.90;1.00
8664;DHT22;4369;47.842;13.096;2024-01-10T10:01:40;-0.40;1.00
8664;DHT22;4369;47.842;13.096;2024-01-10T10:04:11;-0.10;1.00
8664;DHT22;4369;47.842;13.096;2024-01-10T10:06:38;0.00;1.00
8664;DHT22;4369;47.842;13.096;2024-01-10T10:09:07;0.30;1.00
8664;DHT22;4369;47.842;13.096;2024-01-10T10:11:35;0.50;1.00
8664;DHT22;4369;47.842;13.096;2024-01-10T10:14:14;0.80;1.00
8664;DHT22;4369;47.842;13.096;2024-01-10T10:16:42;1.50;1.00
8664;DHT22;4369;47.842;13.096;2024-01-10T10:19:10;2.50;1.00
8664;DHT22;4369;47.842;13.096;2024-01-10T10:21:38;3.40;1.00
8664;DHT22;4369;47.842;13.096;2024-01-10T10:24:05;4.10;1.00
8664;DHT22;4369;47.842;13.096;2024-01-10T10:26:36;5.60;1.00
8664;DHT22;4369;47.842;13.096;2024-01-10T10:29:02;6.40;1.00
8664;DHT22;4369;47.842;13.096;2024-01-10T10:31:31;7.40;1.00
8664;DHT22;4369;47.842;13.096;2024-01-10T10:33:59;8.20;1.00
8664;DHT22;4369;47.842;13.096;2024-01-10T10:36:26;9.30;1.00
8664;DHT22;4369;47.842;13.096;2024-01-10T10:38:53;10.70;1.00
8664;DHT22;4369;47.842;13.096;2024-01-10T10:41:20;11.60;1.00
8664;DHT22;4369;47.842;13.096;2024-01-10T10:43:49;11.80;1.00
8664;DHT22;4369;47.842;13.096;2024-01-10T10:46:17;12.40;1.00
8664;DHT22;4369;47.842;13.096;2024-01-10T10:48:48;12.60;1.00
8664;DHT22;4369;47.842;13.096;2024-01-10T10:51:19;13.70;1.00
8664;DHT22;4369;47.842;13.096;2024-01-10T10:53:50;14.10;1.00
8664;DHT22;4369;47.842;13.096;2024-01-10T10:56:17;15.10;1.00
8664;DHT22;4369;47.842;13.096;2024-01-10T10:58:44;16.80;1.00
8664;DHT22;4369;47.842;13.096;2024-01-10T11:01:14;16.90;1.00
8664;DHT22;4369;47.842;13.096;2024-01-10T11:03:41;17.60;1.00
8664;DHT22;4369;47.842;13.096;2024-01-10T11:06:10;16.50;1.00
8664;DHT22;4369;47.842;13.096;2024-01-10T11:08:43;16.70;1.00
8664;DHT22;4369;47.842;13.096;2024-01-10T11:11:19;16.10;1.00
8664;DHT22;4369;47.842;13.096;2024-01-10T11:14:07;16.60;1.00
8664;DHT22;4369;47.842;13.096;2024-01-10T11:17:11;16.30;1.00
8664;DHT22;4369;47.842;13.096;2024-01-10T11:19:58;17.10;1.00
8664;DHT22;4369;47.842;13.096;2024-01-10T11:22:48;16.50;1.00
8664;DHT22;4369;47.842;13.096;2024-01-10T11:25:19;17.00;1.00
8664;DHT22;4369;47.842;13.096;2024-01-10T11:27:46;16.70;1.00
8664;DHT22;4369;47.842;13.096;2024-01-10T11:30:30;16.80;1.00
8664;DHT22;4369;47.842;13.096;2024-01-10T11:33:07;16.40;1.00
8664;DHT22;4369;47.842;13.096;2024-01-10T11:36:05;15.90;1.00
8664;DHT22;4369;47.842;13.096;2024-01-10T11:38:33;16.30;1.00
8664;DHT22;4369;47.842;13.096;2024-01-10T11:41:00;16.40;1.00
8664;DHT22;4369;47.842;13.096;2024-01-10T11:43:27;16.80;1.00
8664;DHT22;4369;47.842;13.096;2024-01-10T11:45:55;17.80;1.00
8664;DHT22;4369;47.842;13.096;2024-01-10T11:48:31;17.60;1.00
8664;DHT22;4369;47.842;13.096;2024-01-10T11:50:59;17.40;1.00
8664;DHT22;4369;47.842;13.096;2024-01-10T11:53:42;17.70;1.00
8664;DHT22;4369;47.842;13.096;2024-01-10T11:56:12;17.40;1.00
8664;DHT22;4369;47.842;13.096;2024-01-10T11:58:53;17.50;1.00
8664;DHT22;4369;47.842;13.096;2024-01-10T12:01:21;17.60;1.00
8664;DHT22;4369;47.842;13.096;2024-01-10T12:03:51;17.20;1.00
8664;DHT22;4369;47.842;13.096;2024-01-10T12:06:21;16.90;1.00
8664;DHT22;4369;47.842;13.096;2024-01-10T12:08:48;16.50;1.00
8664;DHT22;4369;47.842;13.096;2024-01-10T12:11:16;15.70;1.00
8664;DHT22;4369;47.842;13.096;2024-01-10T12:13:43;15.30;1.00
8664;DHT22;4369;47.842;13.096;2024-01-10T12:16:11;14.40;1.00
8664;DHT22;4369;47.842;13.096;2024-01-10T12:18:39;13.50;1.00
8664;DHT22;4369;47.842;13.096;2024-01-10T12:21:07;12.40;1.00
8664;DHT22;4369;47.842;13.096;2024-01-10T12:23:36;12.20;1.00
8664;DHT22;4369;47.842;13.096;2024-01-10T12:26:05;12.00;1.00
8664;DHT22;4369;47.842;13.096;2024-01-10T12:28:34;11.80;1.00
8664;DHT22;4369;47.842;13.096;2024-01-10T12:31:01;10.60;1.00
8664;DHT22;4369;47.842;13.096;2024-01-10T12:33:31;10.00;1.00
8664;DHT22;4369;47.842;13.096;2024-01-10T12:36:07;10.80;1.00
8664;DHT22;4369;47.842;13.096;2024-01-10T12:38:35;12.00;1.00
8664;DHT22;4369;47.842;13.096;2024-01-10T12:41:03;13.10;1.00
8664;DHT22;4369;47.842;13.096;2024-01-10T12:43:31;13.80;1.00
8664;DHT22;4369;47.842;13.096;2024-01-10T12:46:08;14.50;1.00
8664;DHT22;4369;47.842;13.096;2024-01-10T12:48:36;15.60;1.00
8664;DHT22;4369;47.842;13.096;2024-01-10T12:51:04;15.80;1.00
8664;DHT22;4369;47.842;13.096;2024-01-10T12:53:35;15.60;1.00
8664;DHT22;4369;47.842;13.096;2024-01-10T12:56:03;16.00;1.00
8664;DHT22;4369;47.842;13.096;2024-01-10T12:58:30;15.60;1.00
8664;DHT22;4369;47.842;13.096;2024-01-10T13:00:57;14.70;1.00
8664;DHT22;4369;47.842;13.096;2024-01-10T13:03:24;15.20;1.00
8664;DHT22;4369;47.842;13.096;2024-01-10T13:05:51;15.10;1.00
8664;DHT22;4369;47.842;13.096;2024-01-10T13:08:19;15.20;1.00
8664;DHT22;4369;47.842;13.096;2024-01-10T13:10:48;14.30;1.00
8664;DHT22;4369;47.842;13.096;2024-01-10T13:13:15;14.30;1.00
8664;DHT22;4369;47.842;13.096;2024-01-10T13:15:43;13.40;1.00
8664;DHT22;4369;47.842;13.096;2024-01-10T13:18:11;12.50;1.00
8664;DHT22;4369;47.842;13.096;2024-01-10T13:20:39;11.40;1.00
8664;DHT22;4369;47.842;13.096;2024-01-10T13:23:06;10.40;1.00
8664;DHT22;4369;47.842;13.096;2024-01-10T13:25:33;9.30;1.00
8664;DHT22;4369;47.842;13.096;2024-01-10T13:28:02;8.70;1.00
8664;DHT22;4369;47.842;13.096;2024-01-10T13:30:30;8.50;1.00
8664;DHT22;4369;47.842;13.096;2024-01-10T13:32:57;8.20;1.00
8664;DHT22;4369;47.842;13.096;2024-01-10T13:35:24;8.50;1.00
8664;DHT22;4369;47.842;13.096;2024-01-10T13:37:51;8.40;1.00
8664;DHT22;4369;47.842;13.096;2024-01-10T13:40:18;8.60;1.00
8664;DHT22;4369;47.842;13.096;2024-01-10T13:42:49;8.10;1.00
8664;DHT22;4369;47.842;13.096;2024-01-10T13:45:18;7.80;1.00
8664;DHT22;4369;47.842;13.096;2024-01-10T13:47:46;7.10;1.00
8664;DHT22;4369;47.842;13.096;2024-01-10T13:50:14;6.80;1.00
8664;DHT22;4369;47.842;13.096;2024-01-10T13:52:41;6.90;1.00
8664;DHT22;4369;47.842;13.096;2024-01-10T13:55:09;6.80;1.00
8664;DHT22;4369;47.842;13.096;2024-01-10T13:57:36;7.00;1.00
8664;DHT22;4369;47.842;13.096;2024-01-10T14:00:05;6.10;1.00
8664;DHT22;4369;47.842;13.096;2024-01-10T14:02:35;5.70;1.00
8664;DHT22;4369;47.842;13.096;2024-01-10T14:05:02;5.60;1.00
8664;DHT22;4369;47.842;13.096;2024-01-10T14:07:31;5.40;1.00
8664;DHT22;4369;47.842;13.096;2024-01-10T14:09:59;5.30;1.00
8664;DHT22;4369;47.842;13.096;2024-01-10T14:12:27;4.80;1.00
8664;DHT22;4369;47.842;13.096;2024-01-10T14:14:54;4.70;1.00
8664;DHT22;4369;47.842;13.096;2024-01-10T14:17:21;4.20;1.00
8664;DHT22;4369;47.842;13.096;2024-01-10T14:19:51;3.30;1.00
8664;DHT22;4369;47.842;13.096;2024-01-10T14:22:18;2.70;1.00
8664;DHT22;4369;47.842;13.096;2024-01-10T14:24:45;2.40;1.00
8664;DHT22;4369;47.842;13.096;2024-01-10T14:27:12;1.60;1.00
8664;DHT22;4369;47.842;13.096;2024-01-10T14:29:39;1.10;1.00
8664;DHT22;4369;47.842;13.096;2024-01-10T14:32:06;0.90;1.00
8664;DHT22;4369;47.842;13.096;2024-01-10T14:34:33;0.60;1.00
8664;DHT22;4369;47.842;13.096;2024-01-10T14:37:01;0.60;1.00
8664;DHT22;4369;47.842;13.096;2024-01-10T14:39:28;0.80;1.00
8664;DHT22;4369;47.842;13.096;2024-01-10T14:41:55;0.90;1.00
8664;DHT22;4369;47.842;13.096;2024-01-10T14:44:22;1.00;1.00
8664;DHT22;4369;47.842;13.096;2024-01-10T14:46:49;0.80;1.00
8664;DHT22;4369;47.842;13.096;2024-01-10T14:49:16;0.80;1.00
8664;DHT22;4369;47.842;13.096;2024-01-10T14:51:44;0.80;1.00
8664;DHT22;4369;47.842;13.096;2024-01-10T14:54:14;0.60;1.00
8664;DHT22;4369;47.842;13.096;2024-01-10T14:56:40;0.50;1.00
8664;DHT22;4369;47.842;13.096;2024-01-10T14:59:10;0.30;1.00
8664;DHT22;4369;47.842;13.096;2024-01-10T15:01:37;0.10;1.00
8664;DHT22;4369;47.842;13.096;2024-01-10T15:04:04;0.10;1.00
8664;DHT22;4369;47.842;13.096;2024-01-10T15:06:31;0.10;1.00
8664;DHT22;4369;47.842;13.096;2024-01-10T15:08:58;-0.10;1.00
8664;DHT22;4369;47.842;13.096;2024-01-10T15:11:26;-0.60;1.00
8664;DHT22;4369;47.842;13.096;2024-01-10T15:13:53;-0.80;8.20
8664;DHT22;4369;47.842;13.096;2024-01-10T15:16:20;-0.90;61.40
8664;DHT22;4369;47.842;13.096;2024-01-10T15:18:47;-1.20;99.90
8664;DHT22;4369;47.842;13.096;2024-01-10T15:21:14;-1.10;99.90
8664;DHT22;4369;47.842;13.096;2024-01-10T15:23:41;-1.10;99.90
8664;DHT22;4369;47.842;13.096;2024-01-10T15:26:08;-1.00;99.90
8664;DHT22;4369;47.842;13.096;2024-01-10T15:28:37;-1.30;99.90
8664;DHT22;4369;47.842;13.096;2024-01-10T15:31:04;-1.40;99.90
8664;DHT22;4369;47.842;13.096;2024-01-10T15:33:30;-1.40;99.90
8664;DHT22;4369;47.842;13.096;2024-01-10T15:35:57;-1.40;99.90
8664;DHT22;4369;47.842;13.096;2024-01-10T15:38:24;-1.40;99.90
8664;DHT22;4369;47.842;13.096;2024-01-10T15:40:51;-1.40;99.90
8664;DHT22;4369;47.842;13.096;2024-01-10T15:43:19;-1.70;99.90
8664;DHT22;4369;47.842;13.096;2024-01-10T15:45:47;-1.80;99.90
8664;DHT22;4369;47.842;13.096;2024-01-10T15:48:14;-1.90;1.00
8664;DHT22;4369;47.842;13.096;2024-01-10T15:50:41;-2.00;1.00
8664;DHT22;4369;47.842;13.096;2024-01-10T15:53:08;-1.90;28.00
8664;DHT22;4369;47.842;13.096;2024-01-10T15:55:35;-2.00;99.90
8664;DHT22;4369;47.842;13.096;2024-01-10T15:58:03;-1.90;1.00
8664;DHT22;4369;47.842;13.096;2024-01-10T16:00:30;-1.90;99.90
8664;DHT22;4369;47.842;13.096;2024-01-10T16:02:59;-1.90;99.90